Time;durP1;ratioP1;P1;durP2;ratioP2;P2;SDS_P1;SDS_P2;PMS_P1;PMS_P2;Temp;Humidity;BMP_temperature;BMP_pressure;BME280_temperature;BME280_humidity;BME280_pressure;Samples;Min_cycle;Max_cycle;Signal;HPM_P1;HPM_P2
2024/01/05 00:01:10;;;;;;;10.18;4.65;;;4.50;99.90;;;;;;5089438;28;20046;-77
2024/01/05 00:03:35;;;;;;;7.90;4.50;;;4.30;99.90;;;;;;5090548;28;20471;-76
2024/01/05 00:06:01;;;;;;;5.35;3.10;;;4.20;99.90;;;;;;5091365;28;20688;-76
2024/01/05 00:08:27;;;;;;;6.50;2.65;;;4.30;99.90;;;;;;5090963;27;20114;-75
2024/01/05 00:10:52;;;;;;;5.35;2.58;;;4.30;99.90;;;;;;5094731;28;20463;-75
2024/01/05 00:13:19;;;;;;;5.32;2.80;;;4.50;99.90;;;;;;5093040;28;20483;-76
2024/01/05 00:15:44;;;;;;;6.38;2.60;;;4.50;99.90;;;;;;5092423;28;20042;-76
2024/01/05 00:18:10;;;;;;;6.03;2.58;;;4.50;99.90;;;;;;5094849;28;20055;-76
2024/01/05 00:20:36;;;;;;;5.22;2.45;;;4.50;99.90;;;;;;5093349;28;20135;-75
2024/01/05 00:23:01;;;;;;;5.40;2.47;;;4.50;99.90;;;;;;5095869;28;20035;-75
2024/01/05 00:25:27;;;;;;;5.55;2.60;;;4.40;99.90;;;;;;5093525;28;20040;-76
2024/01/05 00:27:53;;;;;;;4.32;2.20;;;4.40;99.90;;;;;;5093488;28;20080;-76
2024/01/05 00:30:19;;;;;;;4.95;2.50;;;4.70;99.90;;;;;;5095611;28;20431;-76
2024/01/05 00:32:45;;;;;;;5.25;2.88;;;4.70;99.90;;;;;;5092969;28;20038;-76
2024/01/05 00:35:11;;;;;;;5.05;2.63;;;4.60;99.90;;;;;;5094245;28;20032;-76
2024/01/05 00:37:36;;;;;;;5.68;2.95;;;4.50;99.90;;;;;;5095173;28;20397;-75
2024/01/05 00:40:03;;;;;;;6.80;2.85;;;4.30;99.90;;;;;;5094299;28;20028;-76
2024/01/05 00:42:29;;;;;;;3.63;1.95;;;4.40;99.90;;;;;;5094250;28;20036;-76
2024/01/05 00:44:54;;;;;;;4.05;2.28;;;4.40;99.90;;;;;;5095515;28;20121;-75
2024/01/05 00:47:20;;;;;;;4.10;2.03;;;4.30;99.90;;;;;;5095072;28;20382;-75
2024/01/05 00:49:46;;;;;;;7.15;2.53;;;4.20;99.90;;;;;;5093683;28;20059;-75
2024/01/05 00:52:12;;;;;;;5.32;2.58;;;4.10;99.90;;;;;;5094639;28;20063;-75
2024/01/05 00:54:38;;;;;;;4.20;2.10;;;4.10;99.90;;;;;;5093370;28;20087;-75
2024/01/05 00:57:04;;;;;;;5.35;2.25;;;4.30;99.90;;;;;;5093550;28;20027;-76
2024/01/05 00:59:30;;;;;;;5.68;2.60;;;4.20;99.90;;;;;;5095015;28;20225;-75
2024/01/05 01:01:58;;;;;;;6.05;2.53;;;3.90;99.90;;;;;;5093212;28;20465;-75
2024/01/05 01:04:24;;;;;;;4.65;2.33;;;3.80;99.90;;;;;;5094636;28;20119;-75
2024/01/05 01:06:50;;;;;;;5.85;2.35;;;3.80;99.90;;;;;;5093787;28;20392;-76
2024/01/05 01:09:16;;;;;;;4.78;2.40;;;3.80;99.90;;;;;;5093467;28;20069;-76
2024/01/05 01:11:41;;;;;;;4.25;2.35;;;3.80;99.90;;;;;;5094358;28;20138;-75
2024/01/05 01:14:07;;;;;;;4.78;2.50;;;3.80;99.90;;;;;;5093380;28;20032;-75
2024/01/05 01:16:33;;;;;;;4.88;2.05;;;3.60;99.90;;;;;;5092614;28;20028;-76
2024/01/05 01:18:59;;;;;;;4.28;2.15;;;3.70;99.90;;;;;;5094817;28;20039;-75
2024/01/05 01:21:25;;;;;;;5.47;1.98;;;3.80;99.90;;;;;;5093387;28;20070;-75
2024/01/05 01:23:52;;;;;;;3.90;2.00;;;3.80;99.90;;;;;;5092782;28;20477;-76
2024/01/05 01:26:17;;;;;;;4.55;2.03;;;4.00;99.90;;;;;;5094530;28;20035;-76
2024/01/05 01:28:43;;;;;;;4.40;2.40;;;3.90;99.90;;;;;;5093250;28;20031;-75
2024/01/05 01:31:09;;;;;;;5.35;2.33;;;3.80;99.90;;;;;;5092161;28;20027;-75
2024/01/05 01:33:34;;;;;;;3.72;1.92;;;3.60;99.90;;;;;;5098841;28;20040;-75
2024/01/05 01:36:00;;;;;;;4.25;1.92;;;3.50;99.90;;;;;;5096635;28;20445;-75
2024/01/05 01:38:26;;;;;;;5.80;2.33;;;3.40;99.90;;;;;;5097365;28;20103;-75
2024/01/05 01:40:54;;;;;;;4.10;2.13;;;3.40;99.90;;;;;;5099161;28;20041;-75
2024/01/05 01:43:24;;;;;;;4.97;2.50;;;3.60;99.90;;;;;;5096674;28;20039;-75
2024/01/05 01:45:51;;;;;;;3.78;1.85;;;3.80;99.90;;;;;;5094926;28;20058;-75
2024/01/05 01:48:19;;;;;;;3.22;1.70;;;3.80;99.90;;;;;;5096612;28;20115;-76
2024/01/05 01:50:46;;;;;;;5.15;1.70;;;3.80;99.90;;;;;;5098499;28;20023;-75
2024/01/05 01:53:14;;;;;;;3.70;1.80;;;3.80;99.90;;;;;;5096727;27;20162;-75
2024/01/05 01:55:41;;;;;;;3.70;1.90;;;3.80;99.90;;;;;;5097576;28;20608;-75
2024/01/05 01:58:08;;;;;;;4.00;2.10;;;3.80;99.90;;;;;;5098393;28;20074;-75
2024/01/05 02:00:34;;;;;;;4.18;1.75;;;3.70;99.90;;;;;;5096777;28;20166;-75
2024/01/05 02:03:04;;;;;;;4.32;1.67;;;3.80;99.90;;;;;;5096186;28;20114;-75
2024/01/05 02:05:29;;;;;;;4.47;1.80;;;3.90;99.90;;;;;;5098322;28;20059;-75
2024/01/05 02:07:56;;;;;;;3.80;1.90;;;3.80;99.90;;;;;;5096359;28;20466;-75
2024/01/05 02:10:23;;;;;;;4.15;1.80;;;3.90;99.90;;;;;;5096441;28;20040;-75
2024/01/05 02:12:49;;;;;;;4.28;2.10;;;3.90;99.90;;;;;;5098063;28;20533;-75
2024/01/05 02:15:15;;;;;;;6.72;2.45;;;3.80;99.90;;;;;;5098008;28;20055;-75
2024/01/05 02:17:41;;;;;;;5.88;2.58;;;3.80;99.90;;;;;;5094036;28;20035;-76
2024/01/05 02:20:07;;;;;;;6.25;2.35;;;3.70;99.90;;;;;;5097399;28;20108;-75
2024/01/05 02:22:34;;;;;;;3.80;2.13;;;3.70;99.90;;;;;;5096499;28;20077;-75
2024/01/05 02:25:01;;;;;;;4.75;2.35;;;3.70;99.90;;;;;;5096127;28;20042;-76
2024/01/05 02:27:27;;;;;;;4.70;2.47;;;3.60;99.90;;;;;;5096193;28;20413;-76
2024/01/05 02:29:53;;;;;;;4.47;2.00;;;3.50;99.90;;;;;;5097623;28;20042;-75
2024/01/05 02:32:19;;;;;;;4.88;1.92;;;3.60;99.90;;;;;;5095671;28;20027;-75
2024/01/05 02:34:45;;;;;;;3.65;1.52;;;3.60;99.90;;;;;;5096285;28;20034;-76
2024/01/05 02:37:10;;;;;;;3.35;1.73;;;3.60;99.90;;;;;;5097384;28;20055;-76
2024/01/05 02:39:36;;;;;;;3.80;2.08;;;3.60;99.90;;;;;;5097933;28;20024;-75
2024/01/05 02:42:02;;;;;;;3.35;1.65;;;3.50;99.90;;;;;;5096196;28;20083;-75
2024/01/05 02:44:28;;;;;;;3.13;1.48;;;3.60;99.90;;;;;;5096454;28;20405;-75
2024/01/05 02:46:54;;;;;;;4.68;1.70;;;3.70;99.90;;;;;;5096825;28;20042;-76
2024/01/05 02:49:19;;;;;;;4.25;1.80;;;3.70;99.90;;;;;;5095753;28;20790;-75
2024/01/05 02:51:45;;;;;;;3.60;1.70;;;3.70;99.90;;;;;;5097688;28;20032;-75
2024/01/05 02:54:11;;;;;;;4.15;1.60;;;3.50;99.90;;;;;;5096059;28;20042;-75
2024/01/05 02:56:36;;;;;;;4.05;1.70;;;3.40;99.90;;;;;;5095567;28;20501;-75
2024/01/05 02:59:04;;;;;;;2.72;1.60;;;3.50;99.90;;;;;;5096896;28;20059;-75
2024/01/05 03:01:30;;;;;;;3.72;1.73;;;3.60;99.90;;;;;;5096609;28;20032;-75
2024/01/05 03:03:57;;;;;;;3.33;1.50;;;3.60;99.90;;;;;;5094808;28;20128;-76
2024/01/05 03:06:23;;;;;;;3.72;1.80;;;3.60;99.90;;;;;;5097149;28;20118;-76
2024/01/05 03:08:49;;;;;;;4.38;2.03;;;3.60;99.90;;;;;;5095217;28;20042;-75
2024/01/05 03:11:15;;;;;;;5.68;2.53;;;3.60;99.90;;;;;;5095201;28;20453;-75
2024/01/05 03:13:41;;;;;;;4.55;2.45;;;3.70;99.90;;;;;;5095644;28;20042;-75
2024/01/05 03:16:07;;;;;;;5.47;2.53;;;3.70;99.90;;;;;;5095700;28;20489;-75
2024/01/05 03:18:33;;;;;;;4.35;2.45;;;3.60;99.90;;;;;;5095463;28;20047;-75
2024/01/05 03:20:58;;;;;;;4.70;2.40;;;3.50;99.90;;;;;;5096035;28;20047;-75
2024/01/05 03:23:24;;;;;;;4.28;2.17;;;3.60;99.90;;;;;;5095409;28;20513;-75
2024/01/05 03:25:50;;;;;;;3.92;1.70;;;3.60;99.90;;;;;;5095771;28;20076;-76
2024/01/05 03:28:17;;;;;;;4.78;1.75;;;3.60;99.90;;;;;;5096667;28;20059;-76
2024/01/05 03:30:43;;;;;;;4.40;2.00;;;3.60;99.90;;;;;;5093676;28;20031;-75
2024/01/05 03:33:09;;;;;;;4.10;1.80;;;3.60;99.90;;;;;;5094608;28;20044;-75
2024/01/05 03:35:38;;;;;;;4.13;1.90;;;3.70;99.90;;;;;;5095641;28;20038;-75
2024/01/05 03:38:04;;;;;;;3.88;1.98;;;3.70;99.90;;;;;;5095255;28;20024;-75
2024/01/05 03:40:29;;;;;;;3.63;1.80;;;3.70;99.90;;;;;;5095213;28;20386;-75
2024/01/05 03:42:56;;;;;;;3.63;1.90;;;3.70;99.90;;;;;;5096168;28;20044;-75
2024/01/05 03:45:22;;;;;;;4.13;1.95;;;3.60;99.90;;;;;;5095519;28;20389;-75
2024/01/05 03:47:47;;;;;;;3.58;1.63;;;3.50;99.90;;;;;;5094220;28;20036;-75
2024/01/05 03:50:13;;;;;;;3.53;1.70;;;3.50;99.90;;;;;;5095871;28;20032;-75
2024/01/05 03:52:39;;;;;;;6.45;1.48;;;3.50;99.90;;;;;;5094837;28;21524;-75
2024/01/05 03:55:04;;;;;;;2.85;1.50;;;3.50;99.90;;;;;;5093602;28;20032;-75
2024/01/05 03:57:30;;;;;;;4.57;2.25;;;3.40;99.90;;;;;;5096455;28;20566;-75
2024/01/05 03:59:56;;;;;;;3.40;1.48;;;3.40;99.90;;;;;;5093938;28;20035;-75
2024/01/05 04:02:22;;;;;;;3.90;1.70;;;3.40;99.90;;;;;;5092521;28;20164;-77
2024/01/05 04:04:47;;;;;;;2.65;1.40;;;3.50;99.90;;;;;;5090800;28;20032;-75
2024/01/05 04:07:13;;;;;;;4.57;2.33;;;3.60;99.90;;;;;;5089721;28;20028;-75
2024/01/05 04:09:39;;;;;;;3.45;1.42;;;3.60;99.90;;;;;;5089411;28;20416;-76
2024/01/05 04:12:05;;;;;;;4.88;2.22;;;3.60;99.90;;;;;;5091597;28;20082;-76
2024/01/05 04:14:30;;;;;;;5.53;2.03;;;3.60;99.90;;;;;;5090486;28;20032;-75
2024/01/05 04:16:56;;;;;;;2.72;1.23;;;3.60;99.90;;;;;;5088012;28;20036;-76
2024/01/05 04:19:22;;;;;;;3.78;1.77;;;3.70;99.90;;;;;;5088247;28;20665;-76
2024/01/05 04:21:48;;;;;;;4.63;1.55;;;3.60;99.90;;;;;;5086560;28;20050;-76
2024/01/05 04:24:14;;;;;;;3.75;1.70;;;3.50;99.90;;;;;;5086982;28;20051;-76
2024/01/05 04:26:40;;;;;;;3.50;1.80;;;3.50;99.90;;;;;;5087786;28;20055;-76
2024/01/05 04:29:05;;;;;;;4.03;2.08;;;3.50;99.90;;;;;;5089349;28;20462;-76
2024/01/05 04:31:31;;;;;;;3.20;1.67;;;3.40;99.90;;;;;;5090288;28;20031;-75
2024/01/05 04:33:57;;;;;;;3.72;2.22;;;3.50;99.90;;;;;;5090087;28;20639;-76
2024/01/05 04:36:23;;;;;;;4.13;2.22;;;3.60;99.90;;;;;;5091648;28;20111;-75
2024/01/05 04:38:48;;;;;;;4.95;2.08;;;3.50;99.90;;;;;;5089101;28;20102;-76
2024/01/05 04:41:15;;;;;;;3.05;1.95;;;3.50;99.90;;;;;;5086699;28;20620;-76
2024/01/05 04:43:43;;;;;;;6.30;2.42;;;3.70;99.90;;;;;;5088111;28;20114;-76
2024/01/05 04:46:09;;;;;;;4.53;2.10;;;3.90;99.90;;;;;;5088777;28;20975;-76
2024/01/05 04:48:35;;;;;;;3.72;2.15;;;3.90;99.90;;;;;;5087599;28;20115;-76
2024/01/05 04:51:01;;;;;;;8.32;3.58;;;3.90;99.90;;;;;;5087659;28;20039;-76
2024/01/05 04:53:27;;;;;;;6.57;2.92;;;3.80;99.90;;;;;;5085406;28;20034;-75
2024/01/05 04:55:53;;;;;;;5.45;2.83;;;3.60;99.90;;;;;;5086491;28;20027;-75
2024/01/05 04:58:18;;;;;;;6.22;2.30;;;3.50;99.90;;;;;;5088096;28;20040;-76
2024/01/05 05:00:44;;;;;;;16.55;7.95;;;3.50;99.90;;;;;;5086780;28;20594;-76
2024/01/05 05:03:10;;;;;;;7.65;3.95;;;3.50;99.90;;;;;;5086744;28;20101;-75
2024/01/05 05:05:36;;;;;;;6.25;3.30;;;3.60;99.90;;;;;;5087401;28;20036;-75
2024/01/05 05:08:03;;;;;;;5.78;3.35;;;3.60;99.90;;;;;;5086316;28;20295;-76
2024/01/05 05:10:28;;;;;;;6.30;2.83;;;3.50;99.90;;;;;;5085701;28;20054;-76
2024/01/05 05:12:54;;;;;;;6.97;3.22;;;3.60;99.90;;;;;;5087495;28;20389;-76
2024/01/05 05:15:19;;;;;;;4.20;2.38;;;3.50;99.90;;;;;;5086835;28;20567;-76
2024/01/05 05:17:45;;;;;;;4.20;1.88;;;3.40;99.90;;;;;;5086690;28;20040;-75
2024/01/05 05:20:11;;;;;;;4.70;2.03;;;3.50;99.90;;;;;;5087485;28;20028;-75
2024/01/05 05:22:37;;;;;;;4.25;1.70;;;3.50;99.90;;;;;;5085852;28;20027;-76
2024/01/05 05:25:03;;;;;;;3.80;1.70;;;3.60;99.90;;;;;;5086774;28;20035;-75
2024/01/05 05:27:28;;;;;;;3.88;1.70;;;3.70;99.90;;;;;;5088117;28;20445;-76
2024/01/05 05:29:54;;;;;;;4.03;1.85;;;3.80;99.90;;;;;;5085947;28;20027;-75
2024/01/05 05:32:20;;;;;;;3.50;1.67;;;3.80;99.90;;;;;;5086133;28;20034;-76
2024/01/05 05:34:45;;;;;;;4.05;2.05;;;3.80;99.90;;;;;;5087950;28;20046;-76
2024/01/05 05:37:11;;;;;;;4.95;2.35;;;3.70;99.90;;;;;;5087252;28;20838;-76
2024/01/05 05:39:37;;;;;;;4.60;2.30;;;3.70;99.90;;;;;;5086468;28;20500;-75
2024/01/05 05:42:03;;;;;;;4.85;2.35;;;3.80;99.90;;;;;;5087624;28;20042;-76
2024/01/05 05:44:29;;;;;;;5.63;2.50;;;3.80;99.90;;;;;;5085548;28;20028;-75
2024/01/05 05:46:56;;;;;;;4.95;2.15;;;3.80;99.90;;;;;;5086728;28;20154;-75
2024/01/05 05:49:22;;;;;;;3.97;1.83;;;3.90;99.90;;;;;;5087578;28;20061;-75
2024/01/05 05:51:47;;;;;;;3.20;1.75;;;3.90;99.90;;;;;;5085996;28;20027;-75
2024/01/05 05:54:13;;;;;;;4.78;2.40;;;4.00;99.90;;;;;;5086110;28;20046;-76
2024/01/05 05:56:39;;;;;;;5.97;2.78;;;4.00;99.90;;;;;;5088049;28;20054;-75
2024/01/05 05:59:05;;;;;;;4.78;2.40;;;4.00;99.90;;;;;;5086112;28;20110;-76
2024/01/05 06:01:31;;;;;;;5.00;2.58;;;4.00;99.90;;;;;;5085136;28;20040;-75
2024/01/05 06:03:57;;;;;;;5.80;2.92;;;3.90;99.90;;;;;;5086583;28;20034;-76
2024/01/05 06:06:23;;;;;;;7.18;3.35;;;4.00;99.90;;;;;;5087621;28;20039;-76
2024/01/05 06:08:51;;;;;;;6.00;3.22;;;4.00;99.90;;;;;;5086038;28;23444;-76
2024/01/05 06:11:18;;;;;;;6.90;2.67;;;3.90;99.90;;;;;;5086331;28;20060;-76
2024/01/05 06:13:44;;;;;;;4.80;2.53;;;3.90;99.90;;;;;;5086974;28;20039;-76
2024/01/05 06:16:10;;;;;;;5.78;2.50;;;3.70;99.90;;;;;;5086031;28;20037;-76
2024/01/05 06:18:36;;;;;;;4.90;2.95;;;3.70;99.90;;;;;;5087577;28;20097;-75
2024/01/05 06:21:02;;;;;;;5.05;2.70;;;3.50;99.90;;;;;;5096520;28;20035;-74
2024/01/05 06:23:27;;;;;;;6.22;3.83;;;3.30;99.90;;;;;;5088326;28;20170;-74
2024/01/05 06:25:53;;;;;;;7.85;4.20;;;3.30;99.90;;;;;;5089860;28;20503;-76
2024/01/05 06:28:19;;;;;;;7.72;5.20;;;3.40;99.90;;;;;;5089129;28;21381;-76
2024/01/05 06:30:44;;;;;;;7.72;3.88;;;3.20;99.90;;;;;;5089484;28;20116;-75
2024/01/05 06:33:10;;;;;;;8.00;3.20;;;3.30;99.90;;;;;;5090764;28;21740;-75
2024/01/05 06:35:36;;;;;;;7.40;3.53;;;3.30;99.90;;;;;;5088842;28;20035;-75
2024/01/05 06:38:01;;;;;;;7.10;3.60;;;3.40;99.90;;;;;;5089257;28;20650;-75
2024/01/05 06:40:27;;;;;;;65.93;41.30;;;3.50;99.90;;;;;;5089414;28;20875;-75
2024/01/05 06:42:54;;;;;;;30.13;22.25;;;3.50;99.90;;;;;;5088156;28;20085;-75
2024/01/05 06:45:19;;;;;;;21.90;15.38;;;3.70;99.90;;;;;;5089115;28;20602;-75
2024/01/05 06:47:45;;;;;;;16.08;11.70;;;3.80;99.90;;;;;;5090559;28;20035;-75
2024/01/05 06:50:11;;;;;;;9.95;6.95;;;3.80;99.90;;;;;;5089078;28;20055;-75
2024/01/05 06:52:37;;;;;;;9.70;5.82;;;3.80;99.90;;;;;;5089399;28;20114;-75
2024/01/05 06:55:03;;;;;;;8.50;4.90;;;3.90;99.90;;;;;;5090211;28;20027;-75
2024/01/05 06:57:29;;;;;;;8.63;4.45;;;4.00;99.90;;;;;;5088731;28;20035;-75
2024/01/05 06:59:54;;;;;;;8.85;4.68;;;4.00;99.90;;;;;;5088841;28;20035;-75
2024/01/05 07:02:20;;;;;;;6.45;3.35;;;4.00;99.90;;;;;;5089670;28;20585;-75
2024/01/05 07:04:46;;;;;;;6.07;3.00;;;4.00;99.90;;;;;;5089248;28;20023;-75
2024/01/05 07:07:11;;;;;;;9.00;2.83;;;4.10;99.90;;;;;;5089281;28;20646;-76
2024/01/05 07:09:37;;;;;;;8.73;3.95;;;3.80;99.90;;;;;;5090254;28;20059;-75
2024/01/05 07:12:03;;;;;;;7.45;3.72;;;3.70;99.90;;;;;;5088529;28;20039;-76
2024/01/05 07:14:29;;;;;;;7.65;4.00;;;3.70;99.90;;;;;;5088830;28;20056;-76
2024/01/05 07:16:56;;;;;;;7.32;4.15;;;3.60;99.90;;;;;;5097142;28;20027;-73
2024/01/05 07:19:22;;;;;;;8.00;3.85;;;3.60;99.90;;;;;;5090292;28;20910;-75
2024/01/05 07:21:48;;;;;;;9.93;3.83;;;3.60;99.90;;;;;;5089036;28;20043;-73
2024/01/05 07:24:18;;;;;;;6.18;3.65;;;3.60;99.90;;;;;;5088037;28;20028;-75
2024/01/05 07:26:44;;;;;;;8.32;3.95;;;3.60;99.90;;;;;;5086518;28;20512;-76
2024/01/05 07:29:10;;;;;;;7.35;4.03;;;3.60;99.90;;;;;;5086456;28;20063;-74
2024/01/05 07:31:35;;;;;;;8.38;4.22;;;3.50;99.90;;;;;;5088114;28;20389;-74
2024/01/05 07:34:02;;;;;;;8.10;3.95;;;3.50;99.90;;;;;;5087040;28;20032;-75
2024/01/05 07:36:28;;;;;;;5.55;3.20;;;3.60;99.90;;;;;;5087296;28;20044;-74
2024/01/05 07:38:58;;;;;;;7.68;4.00;;;3.70;99.90;;;;;;5088665;28;20057;-75
2024/01/05 07:41:25;;;;;;;5.78;3.58;;;3.70;99.90;;;;;;5087005;28;20044;-74
2024/01/05 07:43:51;;;;;;;4.40;2.67;;;3.80;99.90;;;;;;5086108;28;20054;-75
2024/01/05 07:46:17;;;;;;;6.55;3.60;;;3.90;99.90;;;;;;5088813;28;20023;-75
2024/01/05 07:48:43;;;;;;;7.07;2.90;;;4.00;99.90;;;;;;5088661;28;20274;-75
2024/01/05 07:51:10;;;;;;;6.53;3.15;;;4.00;99.90;;;;;;5087591;28;20992;-76
2024/01/05 07:53:36;;;;;;;5.55;3.38;;;4.00;99.90;;;;;;5088427;28;20028;-76
2024/01/05 07:56:02;;;;;;;7.35;3.63;;;4.00;99.90;;;;;;5087611;28;20437;-75
2024/01/05 07:58:29;;;;;;;5.65;3.28;;;3.90;99.90;;;;;;5087213;28;20100;-76
2024/01/05 08:00:54;;;;;;;4.97;2.90;;;3.90;99.90;;;;;;5087691;28;20046;-76
2024/01/05 08:03:21;;;;;;;7.38;3.55;;;4.00;99.90;;;;;;5088102;28;20027;-76
2024/01/05 08:05:47;;;;;;;8.40;4.25;;;3.90;99.90;;;;;;5086894;28;20031;-75
2024/01/05 08:08:13;;;;;;;7.45;3.90;;;4.00;99.90;;;;;;5088259;28;20063;-76
2024/01/05 08:10:39;;;;;;;9.48;5.00;;;4.00;99.90;;;;;;5086576;28;20523;-74
2024/01/05 08:13:05;;;;;;;7.43;4.20;;;3.90;99.90;;;;;;5087026;28;20036;-74
2024/01/05 08:15:31;;;;;;;7.72;4.25;;;4.00;99.90;;;;;;5087737;28;20435;-75
2024/01/05 08:17:57;;;;;;;9.70;3.80;;;4.10;99.90;;;;;;5088118;28;20047;-77
2024/01/05 08:20:22;;;;;;;8.25;4.28;;;4.10;99.90;;;;;;5086170;28;20646;-75
2024/01/05 08:22:48;;;;;;;7.72;3.90;;;4.10;99.90;;;;;;5087767;28;20036;-76
2024/01/05 08:25:14;;;;;;;6.93;3.42;;;4.10;99.90;;;;;;5087632;28;20546;-75
2024/01/05 08:27:40;;;;;;;8.95;3.22;;;4.10;99.90;;;;;;5085686;28;20035;-74
2024/01/05 08:30:10;;;;;;;8.05;5.18;;;4.00;99.90;;;;;;5089164;28;21377;-75
2024/01/05 08:32:37;;;;;;;8.82;4.80;;;4.00;99.90;;;;;;5088684;28;20089;-75
2024/01/05 08:35:03;;;;;;;8.57;4.55;;;3.90;99.90;;;;;;5086794;28;20026;-75
2024/01/05 08:37:29;;;;;;;8.52;4.97;;;3.90;99.90;;;;;;5086860;28;20066;-75
2024/01/05 08:39:55;;;;;;;12.75;5.60;;;3.90;99.90;;;;;;5088757;28;20172;-75
2024/01/05 08:42:20;;;;;;;10.57;5.32;;;3.90;99.90;;;;;;5087239;28;20039;-75
2024/01/05 08:44:46;;;;;;;7.90;5.43;;;4.00;99.90;;;;;;5086850;28;20059;-76
2024/01/05 08:47:13;;;;;;;9.02;5.22;;;3.80;99.90;;;;;;5087881;28;20031;-75
2024/01/05 08:49:38;;;;;;;7.72;4.45;;;3.70;99.90;;;;;;5079233;28;20028;-73
2024/01/05 08:52:04;;;;;;;6.22;3.92;;;3.80;99.90;;;;;;5085547;28;20035;-73
2024/01/05 08:54:30;;;;;;;9.23;4.15;;;3.80;99.90;;;;;;5087720;28;20111;-72
2024/01/05 08:56:56;;;;;;;7.45;3.40;;;3.90;99.90;;;;;;5087178;28;20032;-73
2024/01/05 08:59:22;;;;;;;7.78;3.83;;;3.80;99.90;;;;;;5084618;28;20111;-73
2024/01/05 09:01:48;;;;;;;7.18;3.65;;;3.90;99.90;;;;;;5087892;28;20103;-74
2024/01/05 09:04:14;;;;;;;7.70;3.90;;;4.00;99.90;;;;;;5089371;28;20097;-73
2024/01/05 09:06:41;;;;;;;8.20;4.10;;;4.00;99.90;;;;;;5086424;28;20039;-73
2024/01/05 09:09:06;;;;;;;9.55;5.35;;;4.00;99.90;;;;;;5083346;28;20481;-73
2024/01/05 09:11:32;;;;;;;9.23;4.57;;;3.90;99.90;;;;;;5075172;28;20064;-73
2024/01/05 09:13:58;;;;;;;8.88;4.75;;;3.70;99.90;;;;;;5082826;28;20791;-73
2024/01/05 09:16:23;;;;;;;6.90;4.55;;;3.80;99.90;;;;;;5084906;28;20462;-73
2024/01/05 09:18:49;;;;;;;8.85;5.10;;;3.80;99.90;;;;;;5086768;28;20027;-74
2024/01/05 09:21:15;;;;;;;9.65;5.80;;;3.80;99.90;;;;;;5085944;28;20156;-73
2024/01/05 09:23:41;;;;;;;6.55;4.05;;;3.80;99.90;;;;;;5084425;28;20027;-73
2024/01/05 09:26:14;;;;;;;8.50;4.85;;;3.90;99.90;;;;;;5083189;28;21664;-72
2024/01/05 09:28:40;;;;;;;9.10;4.65;;;3.90;99.90;;;;;;5082601;28;20032;-73
2024/01/05 09:31:07;;;;;;;8.60;4.97;;;3.90;99.90;;;;;;5083067;28;20035;-73
2024/01/05 09:33:32;;;;;;;9.13;4.15;;;3.90;99.90;;;;;;5084429;28;20878;-73
2024/01/05 09:35:59;;;;;;;9.38;5.03;;;4.00;99.90;;;;;;5087901;28;20957;-72
2024/01/05 09:38:25;;;;;;;9.20;4.60;;;3.90;99.90;;;;;;5088107;28;20589;-73
2024/01/05 09:40:52;;;;;;;10.52;4.95;;;3.90;99.90;;;;;;5090473;28;20131;-73
2024/01/05 09:43:24;;;;;;;6.28;4.15;;;4.00;99.90;;;;;;5086471;28;20128;-73
2024/01/05 09:45:50;;;;;;;10.00;5.25;;;4.00;99.90;;;;;;5088878;28;20034;-72
2024/01/05 09:48:21;;;;;;;7.47;4.07;;;4.00;99.90;;;;;;5088978;28;20035;-73
2024/01/05 09:50:55;;;;;;;6.32;3.95;;;3.90;99.90;;;;;;5087786;28;20035;-73
2024/01/05 09:53:20;;;;;;;7.65;3.38;;;3.90;99.90;;;;;;5087343;28;20474;-73
2024/01/05 09:55:50;;;;;;;8.05;4.20;;;3.70;99.90;;;;;;5092404;28;20119;-73
2024/01/05 09:58:16;;;;;;;6.28;3.03;;;3.60;99.90;;;;;;5092725;28;20090;-73
2024/01/05 10:00:47;;;;;;;6.13;3.63;;;3.70;99.90;;;;;;5087367;28;20492;-73
2024/01/05 10:03:22;;;;;;;5.35;2.97;;;3.50;99.90;;;;;;5092139;28;20073;-73
2024/01/05 10:05:53;;;;;;;;;;;3.60;99.90;;;;;;5090867;28;21744;-73
2024/01/05 10:08:19;;;;;;;6.10;2.53;;;3.70;99.90;;;;;;5092898;28;19930;-73
2024/01/05 10:10:53;;;;;;;6.25;3.25;;;3.80;99.90;;;;;;5092468;28;20134;-72
2024/01/05 10:13:19;;;;;;;6.15;2.92;;;3.70;99.90;;;;;;5092153;28;20034;-72
2024/01/05 10:15:55;;;;;;;9.20;4.65;;;3.80;99.90;;;;;;5091962;28;20158;-73
2024/01/05 10:18:22;;;;;;;7.43;3.17;;;4.00;99.90;;;;;;5091639;28;20036;-74
2024/01/05 10:20:47;;;;;;;6.70;4.15;;;4.00;99.90;;;;;;5091982;28;20036;-73
2024/01/05 10:23:13;;;;;;;12.50;6.13;;;4.10;99.90;;;;;;5091935;28;20088;-73
2024/01/05 10:25:39;;;;;;;9.30;6.43;;;4.10;99.90;;;;;;5089971;28;20042;-73
2024/01/05 10:28:29;;;;;;;11.45;7.18;;;4.10;99.90;;;;;;5089108;28;20123;-73
2024/01/05 10:31:11;;;;;;;13.40;7.35;;;3.80;99.90;;;;;;5091280;28;20042;-74
2024/01/05 10:33:48;;;;;;;11.15;6.13;;;3.70;99.90;;;;;;5091376;28;20031;-73
2024/01/05 10:36:17;;;;;;;13.65;7.80;;;3.80;99.90;;;;;;5091404;28;20465;-73
2024/01/05 10:38:44;;;;;;;9.95;6.68;;;3.90;99.90;;;;;;5090649;28;20592;-73
2024/01/05 10:41:10;;;;;;;10.95;6.47;;;3.60;99.90;;;;;;5093224;28;20069;-73
2024/01/05 10:43:37;;;;;;;9.55;6.18;;;3.70;99.90;;;;;;5091257;28;20027;-72
2024/01/05 10:46:04;;;;;;;12.55;6.28;;;3.60;99.90;;;;;;5091500;28;20879;-72
2024/01/05 10:48:32;;;;;;;9.90;6.68;;;3.70;99.90;;;;;;5092070;28;20042;-72
2024/01/05 10:50:58;;;;;;;8.43;6.43;;;3.60;99.90;;;;;;5090647;28;20077;-72
2024/01/05 10:53:24;;;;;;;13.48;8.02;;;3.80;99.90;;;;;;5090654;28;20152;-73
2024/01/05 10:55:51;;;;;;;12.60;7.15;;;3.90;99.90;;;;;;5092889;28;20035;-73
2024/01/05 10:58:16;;;;;;;11.45;7.05;;;3.80;99.90;;;;;;5090718;28;20078;-71
2024/01/05 11:00:43;;;;;;;12.73;7.90;;;3.80;99.90;;;;;;5090084;28;20546;-73
2024/01/05 11:03:13;;;;;;;8.60;5.93;;;3.80;99.90;;;;;;5092047;28;20107;-73
2024/01/05 11:05:41;;;;;;;9.52;6.75;;;3.70;99.90;;;;;;5091378;28;20032;-71
2024/01/05 11:08:15;;;;;;;13.60;7.97;;;3.80;99.90;;;;;;5090911;28;20028;-72
2024/01/05 11:11:00;;;;;;;10.97;6.57;;;3.90;99.90;;;;;;5091578;28;20086;-72
2024/01/05 11:13:35;;;;;;;;;;;4.00;99.90;;;;;;5089570;28;20681;-73
2024/01/05 11:16:07;;;;;;;8.95;6.22;;;3.90;99.90;;;;;;5090102;28;19916;-72
2024/01/05 11:18:52;;;;;;;17.50;12.35;;;4.00;99.90;;;;;;5090383;28;20078;-71
2024/01/05 11:21:22;;;;;;;9.77;6.25;;;4.00;99.90;;;;;;5091574;28;20051;-71
2024/01/05 11:23:49;;;;;;;11.35;5.68;;;3.80;99.90;;;;;;5089831;28;20542;-71
2024/01/05 11:26:36;;;;;;;6.93;4.30;;;3.80;99.90;;;;;;5089912;28;20160;-72
2024/01/05 11:29:05;;;;;;;7.63;5.50;;;3.90;99.90;;;;;;5088834;28;20023;-72
2024/01/05 11:31:45;;;;;;;8.80;4.63;;;3.90;99.90;;;;;;5090524;28;20122;-71
2024/01/05 11:34:30;;;;;;;88.93;57.78;;;3.90;99.90;;;;;;5091149;28;20027;-70
2024/01/05 11:36:56;;;;;;;49.55;34.42;;;4.10;99.90;;;;;;5091287;28;20051;-71
2024/01/05 11:39:53;;;;;;;30.35;20.10;;;4.10;99.90;;;;;;5087481;28;20707;-71
2024/01/05 11:42:27;;;;;;;29.58;19.52;;;4.10;99.90;;;;;;5086885;28;20535;-73
2024/01/05 11:44:54;;;;;;;17.60;13.27;;;4.10;99.90;;;;;;5087343;28;20024;-71
2024/01/05 11:47:45;;;;;;;16.30;12.98;;;4.00;99.90;;;;;;5085473;28;20137;-72
2024/01/05 11:50:31;;;;;;;15.57;10.52;;;4.20;99.90;;;;;;5085530;28;20036;-71
2024/01/05 11:53:14;;;;;;;14.30;9.43;;;4.20;99.90;;;;;;5086330;28;20152;-71
2024/01/05 11:55:48;;;;;;;10.93;8.70;;;4.30;99.90;;;;;;5086538;28;20036;-71
2024/01/05 11:58:18;;;;;;;11.02;7.97;;;4.30;99.90;;;;;;5086558;28;20108;-72
2024/01/05 12:00:46;;;;;;;12.10;7.60;;;4.20;99.90;;;;;;5086099;27;20040;-72
2024/01/05 12:03:13;;;;;;;34.05;27.10;;;4.20;99.90;;;;;;5086791;28;20622;-71
2024/01/05 12:05:38;;;;;;;22.10;18.05;;;4.20;99.90;;;;;;5086007;28;20026;-73
2024/01/05 12:08:14;;;;;;;15.55;11.48;;;4.20;99.90;;;;;;5086134;28;20035;-74
2024/01/05 12:10:40;;;;;;;12.95;9.13;;;4.10;99.90;;;;;;5087827;28;20059;-74
2024/01/05 12:13:06;;;;;;;14.63;8.75;;;4.10;99.90;;;;;;5085845;28;20088;-74
2024/01/05 12:15:33;;;;;;;11.85;8.85;;;4.10;99.90;;;;;;5085482;28;20035;-73
2024/01/05 12:18:03;;;;;;;16.40;11.50;;;4.10;99.90;;;;;;5085851;28;20024;-75
2024/01/05 12:20:32;;;;;;;14.38;9.27;;;4.20;99.90;;;;;;5087532;28;20031;-74
2024/01/05 12:22:58;;;;;;;12.65;9.10;;;4.10;99.90;;;;;;5085887;28;20481;-74
2024/01/05 12:25:24;;;;;;;15.27;9.45;;;4.20;99.90;;;;;;5086043;28;20061;-73
2024/01/05 12:27:50;;;;;;;13.38;9.43;;;4.10;99.90;;;;;;5086881;28;20089;-73
2024/01/05 12:30:16;;;;;;;13.18;8.27;;;4.20;99.90;;;;;;5085937;28;20136;-73
2024/01/05 12:32:43;;;;;;;12.02;7.97;;;4.30;99.90;;;;;;5085678;28;20484;-72
2024/01/05 12:35:10;;;;;;;15.90;9.25;;;4.30;99.90;;;;;;5086496;28;20038;-73
2024/01/05 12:37:37;;;;;;;15.27;9.02;;;4.30;99.90;;;;;;5085242;28;20102;-73
2024/01/05 12:40:10;;;;;;;14.90;10.07;;;4.40;99.90;;;;;;5085344;28;20023;-72
2024/01/05 12:42:40;;;;;;;17.70;12.75;;;4.30;99.90;;;;;;5086169;28;20035;-74
2024/01/05 12:45:06;;;;;;;17.75;11.48;;;4.40;99.90;;;;;;5086773;28;20104;-75
2024/01/05 12:47:35;;;;;;;12.20;9.20;;;4.30;99.90;;;;;;5085119;28;23433;-73
2024/01/05 12:50:03;;;;;;;15.02;8.90;;;4.30;99.90;;;;;;5085556;28;20039;-74
2024/01/05 12:52:36;;;;;;;15.95;8.98;;;4.20;99.90;;;;;;5086553;28;20031;-73
2024/01/05 12:55:03;;;;;;;15.60;9.95;;;4.10;99.90;;;;;;5084178;28;20047;-75